sensor_id;sensor_type;location;lat;lon;timestamp;temperature;humidity
18624;DHT22;9441;51.420;7.036;2022-12-31T00:00:32;16.30;99.90
18624;DHT22;9441;51.420;7.036;2022-12-31T00:01:34;16.30;99.90
18624;DHT22;9441;51.420;7.036;2022-12-31T00:02:35;16.20;99.90
18624;DHT22;9441;51.420;7.036;2022-12-31T00:03:37;16.30;99.90
18624;DHT22;9441;51.420;7.036;2022-12-31T00:04:40;16.20;99.90
18624;DHT22;9441;51.420;7.036;2022-12-31T00:05:41;16.30;99.90
18624;DHT22;9441;51.420;7.036;2022-12-31T00:06:44;16.30;99.90
18624;DHT22;9441;51.420;7.036;2022-12-31T00:07:45;16.30;99.90
18624;DHT22;9441;51.420;7.036;2022-12-31T00:08:48;16.30;99.90
18624;DHT22;9441;51.420;7.036;2022-12-31T00:09:51;16.30;99.90
18624;DHT22;9441;51.420;7.036;2022-12-31T00:10:53;16.30;99.90
18624;DHT22;9441;51.420;7.036;2022-12-31T00:11:55;16.20;99.90
18624;DHT22;9441;51.420;7.036;2022-12-31T00:12:58;16.20;99.90
18624;DHT22;9441;51.420;7.036;2022-12-31T00:13:59;16.10;99.90
18624;DHT22;9441;51.420;7.036;2022-12-31T00:15:02;16.20;99.90
18624;DHT22;9441;51.420;7.036;2022-12-31T00:16:09;16.10;99.90
18624;DHT22;9441;51.420;7.036;2022-12-31T00:17:11;16.20;99.90
18624;DHT22;9441;51.420;7.036;2022-12-31T00:18:12;16.10;99.90
18624;DHT22;9441;51.420;7.036;2022-12-31T00:19:15;16.00;99.90
18624;DHT22;9441;51.420;7.036;2022-12-31T00:20:16;16.00;99.90
18624;DHT22;9441;51.420;7.036;2022-12-31T00:21:19;16.00;99.90
18624;DHT22;9441;51.420;7.036;2022-12-31T00:22:20;16.00;99.90
18624;DHT22;9441;51.420;7.036;2022-12-31T00:23:22;16.00;99.90
18624;DHT22;9441;51.420;7.036;2022-12-31T00:24:23;16.00;99.90
18624;DHT22;9441;51.420;7.036;2022-12-31T00:25:30;16.00;99.90
18624;DHT22;9441;51.420;7.036;2022-12-31T00:26:34;15.90;99.90
18624;DHT22;9441;51.420;7.036;2022-12-31T00:27:36;15.90;99.90
18624;DHT22;9441;51.420;7.036;2022-12-31T00:28:38;15.90;99.90
18624;DHT22;9441;51.420;7.036;2022-12-31T00:29:40;15.90;99.90
18624;DHT22;9441;51.420;7.036;2022-12-31T00:30:41;15.90;99.90
18624;DHT22;9441;51.420;7.036;2022-12-31T00:31:43;16.00;99.90
18624;DHT22;9441;51.420;7.036;2022-12-31T00:32:44;16.00;99.90
18624;DHT22;9441;51.420;7.036;2022-12-31T00:33:46;15.90;99.90
18624;DHT22;9441;51.420;7.036;2022-12-31T00:34:48;15.90;99.90
18624;DHT22;9441;51.420;7.036;2022-12-31T00:35:50;15.90;99.90
18624;DHT22;9441;51.420;7.036;2022-12-31T00:36:51;15.90;99.90
18624;DHT22;9441;51.420;7.036;2022-12-31T00:37:53;15.90;99.90
18624;DHT22;9441;51.420;7.036;2022-12-31T00:38:56;15.90;99.90
18624;DHT22;9441;51.420;7.036;2022-12-31T00:39:58;16.00;99.90
18624;DHT22;9441;51.420;7.036;2022-12-31T00:40:59;16.00;99.90
18624;DHT22;9441;51.420;7.036;2022-12-31T00:42:03;16.00;99.90
18624;DHT22;9441;51.420;7.036;2022-12-31T00:43:04;16.00;99.90
18624;DHT22;9441;51.420;7.036;2022-12-31T00:44:06;16.10;99.90
18624;DHT22;9441;51.420;7.036;2022-12-31T00:45:07;16.10;99.90
18624;DHT22;9441;51.420;7.036;2022-12-31T00:46:11;16.10;99.90
18624;DHT22;9441;51.420;7.036;2022-12-31T00:47:12;16.20;99.90
18624;DHT22;9441;51.420;7.036;2022-12-31T00:48:14;16.00;99.90
18624;DHT22;9441;51.420;7.036;2022-12-31T00:49:16;16.10;99.90
18624;DHT22;9441;51.420;7.036;2022-12-31T00:50:18;16.20;99.90
18624;DHT22;9441;51.420;7.036;2022-12-31T00:51:21;16.20;99.90
18624;DHT22;9441;51.420;7.036;2022-12-31T00:52:23;16.10;99.90
18624;DHT22;9441;51.420;7.036;2022-12-31T00:53:24;16.10;99.90
18624;DHT22;9441;51.420;7.036;2022-12-31T00:54:27;16.30;99.90
18624;DHT22;9441;51.420;7.036;2022-12-31T00:55:29;16.30;99.90
18624;DHT22;9441;51.420;7.036;2022-12-31T00:56:31;16.20;99.90
18624;DHT22;9441;51.420;7.036;2022-12-31T00:57:34;16.30;99.90
18624;DHT22;9441;51.420;7.036;2022-12-31T00:58:36;16.20;99.90
18624;DHT22;9441;51.420;7.036;2022-12-31T00:59:38;16.30;99.90
18624;DHT22;9441;51.420;7.036;2022-12-31T01:00:40;16.40;99.90
18624;DHT22;9441;51.420;7.036;2022-12-31T01:01:41;16.40;99.90
18624;DHT22;9441;51.420;7.036;2022-12-31T01:02:43;16.40;99.90
18624;DHT22;9441;51.420;7.036;2022-12-31T01:03:45;16.40;99.90
18624;DHT22;9441;51.420;7.036;2022-12-31T01:04:48;16.40;99.90
18624;DHT22;9441;51.420;7.036;2022-12-31T01:05:49;16.30;99.90
18624;DHT22;9441;51.420;7.036;2022-12-31T01:06:51;16.20;99.90
18624;DHT22;9441;51.420;7.036;2022-12-31T01:07:52;16.20;99.90
18624;DHT22;9441;51.420;7.036;2022-12-31T01:08:54;16.20;99.90
18624;DHT22;9441;51.420;7.036;2022-12-31T01:09:55;16.30;99.90
18624;DHT22;9441;51.420;7.036;2022-12-31T01:10:58;16.50;99.90
18624;DHT22;9441;51.420;7.036;2022-12-31T01:12:26;16.50;99.90
18624;DHT22;9441;51.420;7.036;2022-12-31T01:13:29;16.50;99.90
18624;DHT22;9441;51.420;7.036;2022-12-31T01:14:30;16.50;99.90
18624;DHT22;9441;51.420;7.036;2022-12-31T01:15:33;16.40;99.90
18624;DHT22;9441;51.420;7.036;2022-12-31T01:16:37;16.40;99.90
18624;DHT22;9441;51.420;7.036;2022-12-31T01:17:40;16.40;99.90
18624;DHT22;9441;51.420;7.036;2022-12-31T01:18:41;16.40;99.90
18624;DHT22;9441;51.420;7.036;2022-12-31T01:19:43;16.50;99.90
18624;DHT22;9441;51.420;7.036;2022-12-31T01:20:45;16.50;99.90
18624;DHT22;9441;51.420;7.036;2022-12-31T01:21:48;16.50;99.90
18624;DHT22;9441;51.420;7.036;2022-12-31T01:22:50;16.40;99.90
18624;DHT22;9441;51.420;7.036;2022-12-31T01:23:51;16.60;99.90
18624;DHT22;9441;51.420;7.036;2022-12-31T01:24:53;16.50;99.90
18624;DHT22;9441;51.420;7.036;2022-12-31T01:25:54;16.60;99.90
18624;DHT22;9441;51.420;7.036;2022-12-31T01:26:56;16.60;99.90
18624;DHT22;9441;51.420;7.036;2022-12-31T01:28:00;16.60;99.90
18624;DHT22;9441;51.420;7.036;2022-12-31T01:29:02;16.60;99.90
18624;DHT22;9441;51.420;7.036;2022-12-31T01:30:05;16.60;99.90
18624;DHT22;9441;51.420;7.036;2022-12-31T01:31:08;16.60;99.90
18624;DHT22;9441;51.420;7.036;2022-12-31T01:32:11;16.60;99.90
18624;DHT22;9441;51.420;7.036;2022-12-31T01:33:13;16.60;99.90
18624;DHT22;9441;51.420;7.036;2022-12-31T01:34:14;16.60;99.90
18624;DHT22;9441;51.420;7.036;2022-12-31T01:35:16;16.80;99.90
18624;DHT22;9441;51.420;7.036;2022-12-31T01:36:22;16.80;99.90
18624;DHT22;9441;51.420;7.036;2022-12-31T01:37:24;16.80;99.90
18624;DHT22;9441;51.420;7.036;2022-12-31T01:38:25;16.80;99.90
18624;DHT22;9441;51.420;7.036;2022-12-31T01:39:27;16.70;99.90
18624;DHT22;9441;51.420;7.036;2022-12-31T01:40:29;16.70;99.90
18624;DHT22;9441;51.420;7.036;2022-12-31T01:41:34;16.60;99.90
18624;DHT22;9441;51.420;7.036;2022-12-31T01:42:35;16.50;99.90
18624;DHT22;9441;51.420;7.036;2022-12-31T01:43:43;16.70;99.90
18624;DHT22;9441;51.420;7.036;2022-12-31T01:44:54;16.60;99.90
18624;DHT22;9441;51.420;7.036;2022-12-31T01:45:56;16.70;99.90
18624;DHT22;9441;51.420;7.036;2022-12-31T01:46:59;16.80;99.90
18624;DHT22;9441;51.420;7.036;2022-12-31T01:48:01;16.70;99.90
18624;DHT22;9441;51.420;7.036;2022-12-31T01:49:08;16.70;99.90
18624;DHT22;9441;51.420;7.036;2022-12-31T01:50:13;16.60;99.90
18624;DHT22;9441;51.420;7.036;2022-12-31T01:51:16;16.70;99.90
18624;DHT22;9441;51.420;7.036;2022-12-31T01:52:23;16.70;99.90
18624;DHT22;9441;51.420;7.036;2022-12-31T01:53:25;16.50;99.90
18624;DHT22;9441;51.420;7.036;2022-12-31T01:54:28;16.60;99.90
18624;DHT22;9441;51.420;7.036;2022-12-31T01:55:33;16.60;99.90
18624;DHT22;9441;51.420;7.036;2022-12-31T01:56:37;16.60;99.90
18624;DHT22;9441;51.420;7.036;2022-12-31T01:57:41;16.50;99.90
18624;DHT22;9441;51.420;7.036;2022-12-31T01:58:46;16.50;99.90
18624;DHT22;9441;51.420;7.036;2022-12-31T01:59:51;16.60;99.90
18624;DHT22;9441;51.420;7.036;2022-12-31T02:00:54;16.60;99.90
18624;DHT22;9441;51.420;7.036;2022-12-31T02:01:58;16.40;99.90
18624;DHT22;9441;51.420;7.036;2022-12-31T02:02:59;16.50;99.90
18624;DHT22;9441;51.420;7.036;2022-12-31T02:04:05;16.50;99.90
18624;DHT22;9441;51.420;7.036;2022-12-31T02:05:17;16.40;99.90
18624;DHT22;9441;51.420;7.036;2022-12-31T02:06:21;16.30;99.90
18624;DHT22;9441;51.420;7.036;2022-12-31T02:07:24;16.50;99.90
18624;DHT22;9441;51.420;7.036;2022-12-31T02:08:26;16.40;99.90
18624;DHT22;9441;51.420;7.036;2022-12-31T02:09:27;16.40;99.90
18624;DHT22;9441;51.420;7.036;2022-12-31T02:10:30;16.30;99.90
18624;DHT22;9441;51.420;7.036;2022-12-31T02:11:33;16.30;99.90
18624;DHT22;9441;51.420;7.036;2022-12-31T02:12:38;16.20;99.90
18624;DHT22;9441;51.420;7.036;2022-12-31T02:13:39;16.30;99.90
18624;DHT22;9441;51.420;7.036;2022-12-31T02:14:42;16.40;99.90
18624;DHT22;9441;51.420;7.036;2022-12-31T02:15:52;16.10;99.90
18624;DHT22;9441;51.420;7.036;2022-12-31T02:17:00;16.10;99.90
18624;DHT22;9441;51.420;7.036;2022-12-31T02:18:11;16.00;99.90
18624;DHT22;9441;51.420;7.036;2022-12-31T02:19:54;16.10;99.90
18624;DHT22;9441;51.420;7.036;2022-12-31T02:22:44;16.10;99.90
18624;DHT22;9441;51.420;7.036;2022-12-31T02:24:09;16.00;99.90
18624;DHT22;9441;51.420;7.036;2022-12-31T02:25:35;16.00;99.90
18624;DHT22;9441;51.420;7.036;2022-12-31T02:26:54;16.00;99.90
18624;DHT22;9441;51.420;7.036;2022-12-31T02:28:07;15.90;99.90
18624;DHT22;9441;51.420;7.036;2022-12-31T02:29:36;16.00;99.90
18624;DHT22;9441;51.420;7.036;2022-12-31T02:30:46;16.00;99.90
18624;DHT22;9441;51.420;7.036;2022-12-31T02:31:50;16.00;99.90
18624;DHT22;9441;51.420;7.036;2022-12-31T02:33:03;16.00;99.90
18624;DHT22;9441;51.420;7.036;2022-12-31T02:34:12;15.90;99.90
18624;DHT22;9441;51.420;7.036;2022-12-31T02:35:17;15.90;99.90
18624;DHT22;9441;51.420;7.036;2022-12-31T02:36:24;16.00;99.90
18624;DHT22;9441;51.420;7.036;2022-12-31T02:37:29;15.90;99.90
18624;DHT22;9441;51.420;7.036;2022-12-31T02:38:36;15.80;99.90
18624;DHT22;9441;51.420;7.036;2022-12-31T02:39:40;15.70;99.90
18624;DHT22;9441;51.420;7.036;2022-12-31T02:40:43;15.80;99.90
18624;DHT22;9441;51.420;7.036;2022-12-31T02:41:46;15.70;99.90
18624;DHT22;9441;51.420;7.036;2022-12-31T02:42:50;15.80;99.90
18624;DHT22;9441;51.420;7.036;2022-12-31T02:43:52;15.70;99.90
18624;DHT22;9441;51.420;7.036;2022-12-31T02:44:54;15.70;99.90
18624;DHT22;9441;51.420;7.036;2022-12-31T02:46:04;15.70;99.90
18624;DHT22;9441;51.420;7.036;2022-12-31T02:47:25;15.70;99.90
18624;DHT22;9441;51.420;7.036;2022-12-31T02:48:37;15.70;99.90
18624;DHT22;9441;51.420;7.036;2022-12-31T02:49:45;15.70;99.90
18624;DHT22;9441;51.420;7.036;2022-12-31T02:50:57;15.70;99.90
18624;DHT22;9441;51.420;7.036;2022-12-31T02:52:07;15.70;99.90
18624;DHT22;9441;51.420;7.036;2022-12-31T02:53:18;15.70;99.90
18624;DHT22;9441;51.420;7.036;2022-12-31T02:54:28;15.80;99.90
18624;DHT22;9441;51.420;7.036;2022-12-31T02:55:39;15.80;99.90
18624;DHT22;9441;51.420;7.036;2022-12-31T02:56:51;15.70;99.90
18624;DHT22;9441;51.420;7.036;2022-12-31T02:58:00;15.60;99.90
18624;DHT22;9441;51.420;7.036;2022-12-31T02:59:07;15.60;99.90
18624;DHT22;9441;51.420;7.036;2022-12-31T03:00:26;15.70;99.90
18624;DHT22;9441;51.420;7.036;2022-12-31T03:01:54;15.60;99.90
18624;DHT22;9441;51.420;7.036;2022-12-31T03:03:16;15.60;99.90
18624;DHT22;9441;51.420;7.036;2022-12-31T03:04:18;15.60;99.90
18624;DHT22;9441;51.420;7.036;2022-12-31T03:05:38;15.60;99.90
18624;DHT22;9441;51.420;7.036;2022-12-31T03:06:41;15.80;99.90
18624;DHT22;9441;51.420;7.036;2022-12-31T03:07:43;15.80;99.90
18624;DHT22;9441;51.420;7.036;2022-12-31T03:08:45;15.90;99.90
18624;DHT22;9441;51.420;7.036;2022-12-31T03:10:06;15.80;99.90
18624;DHT22;9441;51.420;7.036;2022-12-31T03:11:08;15.70;99.90
18624;DHT22;9441;51.420;7.036;2022-12-31T03:12:32;15.60;99.90
18624;DHT22;9441;51.420;7.036;2022-12-31T03:13:46;15.80;99.90
18624;DHT22;9441;51.420;7.036;2022-12-31T03:14:47;15.90;99.90
18624;DHT22;9441;51.420;7.036;2022-12-31T03:15:49;15.90;99.90
18624;DHT22;9441;51.420;7.036;2022-12-31T03:16:52;15.90;99.90
18624;DHT22;9441;51.420;7.036;2022-12-31T03:17:56;15.80;99.90
18624;DHT22;9441;51.420;7.036;2022-12-31T03:18:59;15.80;99.90
18624;DHT22;9441;51.420;7.036;2022-12-31T03:20:29;15.80;99.90
18624;DHT22;9441;51.420;7.036;2022-12-31T03:21:49;15.80;99.90
18624;DHT22;9441;51.420;7.036;2022-12-31T03:23:11;15.80;99.90
18624;DHT22;9441;51.420;7.036;2022-12-31T03:24:13;15.80;99.90
18624;DHT22;9441;51.420;7.036;2022-12-31T03:25:33;15.80;99.90
18624;DHT22;9441;51.420;7.036;2022-12-31T03:26:34;15.80;99.90
18624;DHT22;9441;51.420;7.036;2022-12-31T03:27:35;15.80;99.90
18624;DHT22;9441;51.420;7.036;2022-12-31T03:28:39;15.80;99.90
18624;DHT22;9441;51.420;7.036;2022-12-31T03:29:41;15.80;99.90
18624;DHT22;9441;51.420;7.036;2022-12-31T03:30:45;15.80;99.90
18624;DHT22;9441;51.420;7.036;2022-12-31T03:31:47;15.80;99.90
18624;DHT22;9441;51.420;7.036;2022-12-31T03:32:50;15.90;99.90
18624;DHT22;9441;51.420;7.036;2022-12-31T03:33:52;16.00;99.90
18624;DHT22;9441;51.420;7.036;2022-12-31T03:34:54;15.90;99.90
18624;DHT22;9441;51.420;7.036;2022-12-31T03:35:55;15.90;99.90
18624;DHT22;9441;51.420;7.036;2022-12-31T03:36:58;16.00;99.90
18624;DHT22;9441;51.420;7.036;2022-12-31T03:37:59;16.00;99.90
18624;DHT22;9441;51.420;7.036;2022-12-31T03:39:01;16.00;99.90
18624;DHT22;9441;51.420;7.036;2022-12-31T03:40:03;15.90;99.90
18624;DHT22;9441;51.420;7.036;2022-12-31T03:41:05;15.80;99.90
18624;DHT22;9441;51.420;7.036;2022-12-31T03:42:10;15.90;99.90
18624;DHT22;9441;51.420;7.036;2022-12-31T03:43:11;15.80;99.90
18624;DHT22;9441;51.420;7.036;2022-12-31T03:44:13;15.80;99.90
18624;DHT22;9441;51.420;7.036;2022-12-31T03:45:14;15.90;99.90
18624;DHT22;9441;51.420;7.036;2022-12-31T03:46:16;15.90;99.90
18624;DHT22;9441;51.420;7.036;2022-12-31T03:47:17;16.00;99.90
18624;DHT22;9441;51.420;7.036;2022-12-31T03:48:21;16.00;99.90
18624;DHT22;9441;51.420;7.036;2022-12-31T03:49:23;15.90;99.90
18624;DHT22;9441;51.420;7.036;2022-12-31T03:50:24;15.90;99.90
18624;DHT22;9441;51.420;7.036;2022-12-31T03:51:27;16.00;99.90
18624;DHT22;9441;51.420;7.036;2022-12-31T03:52:28;16.00;99.90
18624;DHT22;9441;51.420;7.036;2022-12-31T03:53:30;16.00;99.90
18624;DHT22;9441;51.420;7.036;2022-12-31T03:54:32;15.90;99.90
18624;DHT22;9441;51.420;7.036;2022-12-31T03:55:33;16.00;99.90
18624;DHT22;9441;51.420;7.036;2022-12-31T03:56:35;16.00;99.90
18624;DHT22;9441;51.420;7.036;2022-12-31T03:57:36;16.00;99.90
18624;DHT22;9441;51.420;7.036;2022-12-31T03:58:38;15.90;99.90
18624;DHT22;9441;51.420;7.036;2022-12-31T03:59:39;16.00;99.90
18624;DHT22;9441;51.420;7.036;2022-12-31T04:00:41;15.90;99.90
18624;DHT22;9441;51.420;7.036;2022-12-31T04:01:42;15.80;99.90
18624;DHT22;9441;51.420;7.036;2022-12-31T04:02:44;15.80;99.90
18624;DHT22;9441;51.420;7.036;2022-12-31T04:03:47;16.00;99.90
18624;DHT22;9441;51.420;7.036;2022-12-31T04:04:49;16.00;99.90
18624;DHT22;9441;51.420;7.036;2022-12-31T04:05:53;15.90;99.90
18624;DHT22;9441;51.420;7.036;2022-12-31T04:06:55;16.00;99.90
18624;DHT22;9441;51.420;7.036;2022-12-31T04:07:56;16.00;99.90
18624;DHT22;9441;51.420;7.036;2022-12-31T04:08:58;16.00;99.90
18624;DHT22;9441;51.420;7.036;2022-12-31T04:09:59;15.90;99.90
18624;DHT22;9441;51.420;7.036;2022-12-31T04:11:02;16.00;99.90
18624;DHT22;9441;51.420;7.036;2022-12-31T04:12:04;16.10;99.90
18624;DHT22;9441;51.420;7.036;2022-12-31T04:13:06;16.00;99.90
18624;DHT22;9441;51.420;7.036;2022-12-31T04:14:08;16.00;99.90
18624;DHT22;9441;51.420;7.036;2022-12-31T04:15:15;16.00;99.90
18624;DHT22;9441;51.420;7.036;2022-12-31T04:16:17;16.00;99.90
18624;DHT22;9441;51.420;7.036;2022-12-31T04:17:18;16.00;99.90
18624;DHT22;9441;51.420;7.036;2022-12-31T04:18:20;16.00;99.90
18624;DHT22;9441;51.420;7.036;2022-12-31T04:19:22;16.00;99.90
18624;DHT22;9441;51.420;7.036;2022-12-31T04:20:24;16.00;99.90
18624;DHT22;9441;51.420;7.036;2022-12-31T04:21:25;15.90;99.90
18624;DHT22;9441;51.420;7.036;2022-12-31T04:22:27;15.90;99.90
18624;DHT22;9441;51.420;7.036;2022-12-31T04:23:28;16.00;99.90
18624;DHT22;9441;51.420;7.036;2022-12-31T04:24:31;16.00;99.90
18624;DHT22;9441;51.420;7.036;2022-12-31T04:25:32;16.00;99.90
18624;DHT22;9441;51.420;7.036;2022-12-31T04:26:34;16.00;99.90
18624;DHT22;9441;51.420;7.036;2022-12-31T04:27:36;16.00;99.90
18624;DHT22;9441;51.420;7.036;2022-12-31T04:28:38;16.00;99.90
18624;DHT22;9441;51.420;7.036;2022-12-31T04:29:39;15.90;99.90
18624;DHT22;9441;51.420;7.036;2022-12-31T04:30:43;15.90;99.90
18624;DHT22;9441;51.420;7.036;2022-12-31T04:31:45;15.90;99.90
18624;DHT22;9441;51.420;7.036;2022-12-31T04:32:46;16.00;99.90
18624;DHT22;9441;51.420;7.036;2022-12-31T04:33:48;16.00;99.90
18624;DHT22;9441;51.420;7.036;2022-12-31T04:34:51;15.80;99.90
18624;DHT22;9441;51.420;7.036;2022-12-31T04:35:53;16.00;99.90
18624;DHT22;9441;51.420;7.036;2022-12-31T04:36:59;15.90;99.90
18624;DHT22;9441;51.420;7.036;2022-12-31T04:38:01;16.00;99.90
18624;DHT22;9441;51.420;7.036;2022-12-31T04:39:02;15.90;99.90
18624;DHT22;9441;51.420;7.036;2022-12-31T04:40:06;16.00;99.90
18624;DHT22;9441;51.420;7.036;2022-12-31T04:41:07;15.90;99.90
18624;DHT22;9441;51.420;7.036;2022-12-31T04:42:19;15.90;99.90
18624;DHT22;9441;51.420;7.036;2022-12-31T04:43:21;15.80;99.90
18624;DHT22;9441;51.420;7.036;2022-12-31T04:44:22;15.90;99.90
18624;DHT22;9441;51.420;7.036;2022-12-31T04:45:25;16.00;99.90
18624;DHT22;9441;51.420;7.036;2022-12-31T04:46:29;16.00;99.90
18624;DHT22;9441;51.420;7.036;2022-12-31T04:47:31;16.00;99.90
18624;DHT22;9441;51.420;7.036;2022-12-31T04:48:33;16.10;99.90
18624;DHT22;9441;51.420;7.036;2022-12-31T04:49:35;16.00;99.90
18624;DHT22;9441;51.420;7.036;2022-12-31T04:50:38;16.00;99.90
18624;DHT22;9441;51.420;7.036;2022-12-31T04:51:39;16.10;99.90
18624;DHT22;9441;51.420;7.036;2022-12-31T04:52:41;16.10;99.90
18624;DHT22;9441;51.420;7.036;2022-12-31T04:53:42;16.10;99.90
18624;DHT22;9441;51.420;7.036;2022-12-31T04:54:44;16.00;99.90
18624;DHT22;9441;51.420;7.036;2022-12-31T04:55:45;16.10;99.90
18624;DHT22;9441;51.420;7.036;2022-12-31T04:56:47;16.10;99.90
18624;DHT22;9441;51.420;7.036;2022-12-31T04:57:49;16.10;99.90
18624;DHT22;9441;51.420;7.036;2022-12-31T04:58:50;16.10;99.90
18624;DHT22;9441;51.420;7.036;2022-12-31T04:59:52;16.10;99.90
18624;DHT22;9441;51.420;7.036;2022-12-31T05:00:55;16.20;99.90
18624;DHT22;9441;51.420;7.036;2022-12-31T05:01:56;16.10;99.90
18624;DHT22;9441;51.420;7.036;2022-12-31T05:02:58;16.10;99.90
18624;DHT22;9441;51.420;7.036;2022-12-31T05:03:59;16.00;99.90
18624;DHT22;9441;51.420;7.036;2022-12-31T05:05:01;16.00;99.90
18624;DHT22;9441;51.420;7.036;2022-12-31T05:06:05;16.00;99.90
18624;DHT22;9441;51.420;7.036;2022-12-31T05:07:07;15.90;99.90
18624;DHT22;9441;51.420;7.036;2022-12-31T05:08:09;16.00;99.90
18624;DHT22;9441;51.420;7.036;2022-12-31T05:09:11;16.10;99.90
18624;DHT22;9441;51.420;7.036;2022-12-31T05:10:13;16.00;99.90
18624;DHT22;9441;51.420;7.036;2022-12-31T05:11:15;16.10;99.90
18624;DHT22;9441;51.420;7.036;2022-12-31T05:12:17;16.10;99.90
18624;DHT22;9441;51.420;7.036;2022-12-31T05:13:18;16.10;99.90
18624;DHT22;9441;51.420;7.036;2022-12-31T05:14:20;16.00;99.90
18624;DHT22;9441;51.420;7.036;2022-12-31T05:15:22;16.00;99.90
18624;DHT22;9441;51.420;7.036;2022-12-31T05:16:23;15.80;99.90
18624;DHT22;9441;51.420;7.036;2022-12-31T05:17:25;16.00;99.90
18624;DHT22;9441;51.420;7.036;2022-12-31T05:18:26;16.10;99.90
18624;DHT22;9441;51.420;7.036;2022-12-31T05:19:28;16.10;99.90
18624;DHT22;9441;51.420;7.036;2022-12-31T05:20:29;16.10;99.90
18624;DHT22;9441;51.420;7.036;2022-12-31T05:21:32;16.20;99.90
18624;DHT22;9441;51.420;7.036;2022-12-31T05:22:34;16.10;99.90
18624;DHT22;9441;51.420;7.036;2022-12-31T05:23:35;16.20;99.90
18624;DHT22;9441;51.420;7.036;2022-12-31T05:24:36;16.20;99.90
18624;DHT22;9441;51.420;7.036;2022-12-31T05:25:39;16.30;99.90
18624;DHT22;9441;51.420;7.036;2022-12-31T05:26:41;16.20;99.90
18624;DHT22;9441;51.420;7.036;2022-12-31T05:27:44;16.20;99.90
18624;DHT22;9441;51.420;7.036;2022-12-31T05:28:45;16.20;99.90
18624;DHT22;9441;51.420;7.036;2022-12-31T05:29:47;16.20;99.90
18624;DHT22;9441;51.420;7.036;2022-12-31T05:30:49;16.30;99.90
18624;DHT22;9441;51.420;7.036;2022-12-31T05:31:52;16.20;99.90
18624;DHT22;9441;51.420;7.036;2022-12-31T05:32:53;16.10;99.90
18624;DHT22;9441;51.420;7.036;2022-12-31T05:33:55;16.10;99.90
18624;DHT22;9441;51.420;7.036;2022-12-31T05:34:57;16.10;99.90
18624;DHT22;9441;51.420;7.036;2022-12-31T05:36:01;16.20;99.90
18624;DHT22;9441;51.420;7.036;2022-12-31T05:37:04;16.20;99.90
18624;DHT22;9441;51.420;7.036;2022-12-31T05:38:05;16.30;99.90
18624;DHT22;9441;51.420;7.036;2022-12-31T05:39:07;16.30;99.90
18624;DHT22;9441;51.420;7.036;2022-12-31T05:40:09;16.20;99.90
18624;DHT22;9441;51.420;7.036;2022-12-31T05:41:12;16.20;99.90
18624;DHT22;9441;51.420;7.036;2022-12-31T05:42:14;16.20;99.90
18624;DHT22;9441;51.420;7.036;2022-12-31T05:43:15;16.20;99.90
18624;DHT22;9441;51.420;7.036;2022-12-31T05:44:17;16.20;99.90
18624;DHT22;9441;51.420;7.036;2022-12-31T05:45:18;16.30;99.90
18624;DHT22;9441;51.420;7.036;2022-12-31T05:46:20;16.20;99.90
18624;DHT22;9441;51.420;7.036;2022-12-31T05:47:21;16.10;99.90
18624;DHT22;9441;51.420;7.036;2022-12-31T05:48:23;16.10;99.90
18624;DHT22;9441;51.420;7.036;2022-12-31T05:49:24;16.20;99.90
18624;DHT22;9441;51.420;7.036;2022-12-31T05:50:26;16.20;99.90
18624;DHT22;9441;51.420;7.036;2022-12-31T05:51:30;16.10;99.90
18624;DHT22;9441;51.420;7.036;2022-12-31T05:52:33;16.10;99.90
18624;DHT22;9441;51.420;7.036;2022-12-31T05:53:34;16.10;99.90
18624;DHT22;9441;51.420;7.036;2022-12-31T05:54:36;16.10;99.90
18624;DHT22;9441;51.420;7.036;2022-12-31T05:55:37;16.20;99.90
18624;DHT22;9441;51.420;7.036;2022-12-31T05:56:39;16.30;99.90
18624;DHT22;9441;51.420;7.036;2022-12-31T05:57:40;16.30;99.90
18624;DHT22;9441;51.420;7.036;2022-12-31T05:58:42;16.30;99.90
18624;DHT22;9441;51.420;7.036;2022-12-31T05:59:43;16.30;99.90
18624;DHT22;9441;51.420;7.036;2022-12-31T06:00:45;16.20;99.90
18624;DHT22;9441;51.420;7.036;2022-12-31T06:01:46;16.20;99.90
18624;DHT22;9441;51.420;7.036;2022-12-31T06:02:48;16.10;99.90
18624;DHT22;9441;51.420;7.036;2022-12-31T06:03:49;16.20;99.90
18624;DHT22;9441;51.420;7.036;2022-12-31T06:04:52;16.20;99.90
18624;DHT22;9441;51.420;7.036;2022-12-31T06:05:53;16.20;99.90
18624;DHT22;9441;51.420;7.036;2022-12-31T06:06:55;16.20;99.90
18624;DHT22;9441;51.420;7.036;2022-12-31T06:07:57;16.20;99.90
18624;DHT22;9441;51.420;7.036;2022-12-31T06:09:00;16.30;99.90
18624;DHT22;9441;51.420;7.036;2022-12-31T06:10:01;16.30;99.90
18624;DHT22;9441;51.420;7.036;2022-12-31T06:11:03;16.30;99.90
18624;DHT22;9441;51.420;7.036;2022-12-31T06:12:05;16.20;99.90
18624;DHT22;9441;51.420;7.036;2022-12-31T06:13:07;16.30;99.90
18624;DHT22;9441;51.420;7.036;2022-12-31T06:14:10;16.20;99.90
18624;DHT22;9441;51.420;7.036;2022-12-31T06:15:11;16.30;99.90
18624;DHT22;9441;51.420;7.036;2022-12-31T06:16:13;16.40;66.10
18624;DHT22;9441;51.420;7.036;2022-12-31T06:17:14;16.40;1.00
18624;DHT22;9441;51.420;7.036;2022-12-31T06:18:16;16.30;99.90
18624;DHT22;9441;51.420;7.036;2022-12-31T06:19:17;16.30;99.90
18624;DHT22;9441;51.420;7.036;2022-12-31T06:20:19;16.30;99.90
18624;DHT22;9441;51.420;7.036;2022-12-31T06:21:21;16.30;99.90
18624;DHT22;9441;51.420;7.036;2022-12-31T06:22:23;16.30;99.90
18624;DHT22;9441;51.420;7.036;2022-12-31T06:23:26;16.30;99.90
18624;DHT22;9441;51.420;7.036;2022-12-31T06:24:28;16.30;99.90
18624;DHT22;9441;51.420;7.036;2022-12-31T06:25:29;16.30;99.90
18624;DHT22;9441;51.420;7.036;2022-12-31T06:26:31;16.40;99.90
18624;DHT22;9441;51.420;7.036;2022-12-31T06:27:32;16.50;92.90
18624;DHT22;9441;51.420;7.036;2022-12-31T06:28:34;16.30;99.90
18624;DHT22;9441;51.420;7.036;2022-12-31T06:29:35;16.40;38.60
18624;DHT22;9441;51.420;7.036;2022-12-31T06:30:37;16.40;1.00
18624;DHT22;9441;51.420;7.036;2022-12-31T06:31:39;16.40;18.00
18624;DHT22;9441;51.420;7.036;2022-12-31T06:32:41;16.40;99.90
18624;DHT22;9441;51.420;7.036;2022-12-31T06:33:42;16.40;29.20
18624;DHT22;9441;51.420;7.036;2022-12-31T06:34:46;16.30;99.90
18624;DHT22;9441;51.420;7.036;2022-12-31T06:35:47;16.30;99.90
18624;DHT22;9441;51.420;7.036;2022-12-31T06:36:49;16.40;99.90
18624;DHT22;9441;51.420;7.036;2022-12-31T06:37:51;16.40;1.00
18624;DHT22;9441;51.420;7.036;2022-12-31T06:38:54;16.40;1.00
18624;DHT22;9441;51.420;7.036;2022-12-31T06:39:55;16.40;1.00
18624;DHT22;9441;51.420;7.036;2022-12-31T06:41:01;16.40;1.00
18624;DHT22;9441;51.420;7.036;2022-12-31T06:42:02;16.40;1.00
18624;DHT22;9441;51.420;7.036;2022-12-31T06:43:04;16.40;1.00
18624;DHT22;9441;51.420;7.036;2022-12-31T06:44:05;16.40;1.00
18624;DHT22;9441;51.420;7.036;2022-12-31T06:45:08;16.40;1.00
18624;DHT22;9441;51.420;7.036;2022-12-31T06:46:11;16.30;1.00
18624;DHT22;9441;51.420;7.036;2022-12-31T06:47:13;16.30;99.90
18624;DHT22;9441;51.420;7.036;2022-12-31T06:48:14;16.30;91.80
18624;DHT22;9441;51.420;7.036;2022-12-31T06:49:16;16.20;1.00
18624;DHT22;9441;51.420;7.036;2022-12-31T06:50:17;16.20;99.90
18624;DHT22;9441;51.420;7.036;2022-12-31T06:51:20;16.30;99.90